Impacts TAF Board
For situational awareness. Not to be used for flight planning purposes.
IDs:

KSLE - Salem Muni, OR, US

Issued at 1730 UTC 06 Dec 2019
Updated at 2121 UTC 06 Dec 2019
Potential Impact None Slight Moderate High
Time2056Z 06/22Z 06/23Z 07/00Z 07/01Z 07/02Z 07/03Z 07/04Z 07/05Z 07/06Z 07/07Z 07/08Z 07/09Z 07/10Z>>
Type OBS PRVL PRVL PRVL PRVL PRVL PRVL PRVL PRVL PRVL PRVL PRVL PRVL PRVL
VIS 10 >6 >6 >6 >6 >6 >6 >6 >6 4 4 4 4 4
CIG 80 150 60 60 60 60 60 60 60 22 22 22 22 22
Cover OVC OVC OVC OVC OVC OVC OVC OVC OVC OVC OVC OVC OVC OVC
FltCat VFR VFR VFR VFR VFR VFR VFR VFR VFR MVFR MVFR MVFR MVFR MVFR
WX -- -- -RA -RA -RA -RA -RA -RA -RA RA BR RA BR RA BR RA BR RA BR
WDir VRB 10 10 10 10 10 10 10 10 VRB VRB VRB VRB VRB
WSpd 0 3 3 3 3 3 3 3 3 2 2 2 2 2
WGst -- -- -- -- -- -- -- -- -- -- -- -- -- --
Raw TAF
KSLE 061730Z 0618/0718 01003KT P6SM SCT080 OVC150
  TEMPO 0618/0620 5SM BR
  FM062300 01003KT P6SM -RA OVC060
  FM070600 VRB02KT 4SM RA BR BKN022 OVC040
  FM071300 16003KT 3SM -RA BR BKN012 OVC030


Raw METAR
KSLE 062056Z 00000KT 10SM BKN080 OVC110 07/03 A2988 RMK AO2 SLP117 T00720033 58015
KSLE 061956Z 36004KT 10SM FEW080 OVC100 07/03 A2989 RMK AO2 SLP123 T00670033
KSLE 061856Z 00000KT 10SM OVC080 07/03 A2991 RMK AO2 SLP130 T00670033

METAR Board
Radar Display
Forecast Discussion
For situational awareness. Not to be used for flight planning purposes.